sensor_id;sensor_type;location;lat;lon;timestamp;temperature;humidity
61392;DHT22;47261;52.892;5.738;2023-09-19T00:00:46;15.60;99.90
61392;DHT22;47261;52.892;5.738;2023-09-19T00:03:12;15.60;99.90
61392;DHT22;47261;52.892;5.738;2023-09-19T00:05:39;15.60;99.90
61392;DHT22;47261;52.892;5.738;2023-09-19T00:08:05;15.60;99.90
61392;DHT22;47261;52.892;5.738;2023-09-19T00:10:32;15.60;99.90
61392;DHT22;47261;52.892;5.738;2023-09-19T00:13:00;15.60;99.90
61392;DHT22;47261;52.892;5.738;2023-09-19T00:15:36;15.60;99.90
61392;DHT22;47261;52.892;5.738;2023-09-19T00:18:03;15.60;99.90
61392;DHT22;47261;52.892;5.738;2023-09-19T00:20:29;15.60;99.90
61392;DHT22;47261;52.892;5.738;2023-09-19T00:22:55;15.50;99.90
61392;DHT22;47261;52.892;5.738;2023-09-19T00:25:21;15.50;99.90
61392;DHT22;47261;52.892;5.738;2023-09-19T00:27:47;15.50;99.90
61392;DHT22;47261;52.892;5.738;2023-09-19T00:30:17;15.50;99.90
61392;DHT22;47261;52.892;5.738;2023-09-19T00:32:50;15.40;99.90
61392;DHT22;47261;52.892;5.738;2023-09-19T00:35:23;15.40;99.90
61392;DHT22;47261;52.892;5.738;2023-09-19T00:37:53;15.40;99.70
61392;DHT22;47261;52.892;5.738;2023-09-19T00:40:19;15.40;99.80
61392;DHT22;47261;52.892;5.738;2023-09-19T00:42:47;15.40;99.50
61392;DHT22;47261;52.892;5.738;2023-09-19T00:45:16;15.30;99.40
61392;DHT22;47261;52.892;5.738;2023-09-19T00:47:48;15.30;99.40
61392;DHT22;47261;52.892;5.738;2023-09-19T00:50:18;15.30;99.50
61392;DHT22;47261;52.892;5.738;2023-09-19T00:52:46;15.30;99.60
61392;DHT22;47261;52.892;5.738;2023-09-19T00:55:14;15.30;99.60
61392;DHT22;47261;52.892;5.738;2023-09-19T00:57:41;15.30;99.70
61392;DHT22;47261;52.892;5.738;2023-09-19T01:00:08;15.30;99.90
61392;DHT22;47261;52.892;5.738;2023-09-19T01:02:41;15.30;99.60
61392;DHT22;47261;52.892;5.738;2023-09-19T01:05:08;15.30;99.60
61392;DHT22;47261;52.892;5.738;2023-09-19T01:07:35;15.30;99.60
61392;DHT22;47261;52.892;5.738;2023-09-19T01:10:06;15.30;99.20
61392;DHT22;47261;52.892;5.738;2023-09-19T01:13:15;15.30;99.20
61392;DHT22;47261;52.892;5.738;2023-09-19T01:15:57;15.20;98.80
61392;DHT22;47261;52.892;5.738;2023-09-19T01:21:42;15.30;98.90
61392;DHT22;47261;52.892;5.738;2023-09-19T01:29:42;15.20;99.10
61392;DHT22;47261;52.892;5.738;2023-09-19T01:32:11;15.30;98.90
61392;DHT22;47261;52.892;5.738;2023-09-19T01:34:45;15.30;98.90
61392;DHT22;47261;52.892;5.738;2023-09-19T01:37:13;15.30;98.80
61392;DHT22;47261;52.892;5.738;2023-09-19T01:39:40;15.40;98.80
61392;DHT22;47261;52.892;5.738;2023-09-19T01:42:37;15.50;98.70
61392;DHT22;47261;52.892;5.738;2023-09-19T01:45:28;15.50;98.60
61392;DHT22;47261;52.892;5.738;2023-09-19T01:51:20;15.50;98.10
61392;DHT22;47261;52.892;5.738;2023-09-19T01:53:55;15.50;97.80
61392;DHT22;47261;52.892;5.738;2023-09-19T01:56:36;15.50;97.80
61392;DHT22;47261;52.892;5.738;2023-09-19T01:59:10;15.50;97.80
61392;DHT22;47261;52.892;5.738;2023-09-19T02:01:37;15.50;97.70
61392;DHT22;47261;52.892;5.738;2023-09-19T02:04:04;15.50;97.60
61392;DHT22;47261;52.892;5.738;2023-09-19T02:06:29;15.50;97.70
61392;DHT22;47261;52.892;5.738;2023-09-19T02:08:55;15.50;97.70
61392;DHT22;47261;52.892;5.738;2023-09-19T02:11:21;15.50;97.70
61392;DHT22;47261;52.892;5.738;2023-09-19T02:13:47;15.50;97.70
61392;DHT22;47261;52.892;5.738;2023-09-19T02:16:12;15.50;97.80
61392;DHT22;47261;52.892;5.738;2023-09-19T02:18:42;15.50;97.90
61392;DHT22;47261;52.892;5.738;2023-09-19T02:21:08;15.50;98.00
61392;DHT22;47261;52.892;5.738;2023-09-19T02:23:35;15.50;97.90
61392;DHT22;47261;52.892;5.738;2023-09-19T02:26:01;15.60;97.90
61392;DHT22;47261;52.892;5.738;2023-09-19T02:28:27;15.60;97.90
61392;DHT22;47261;52.892;5.738;2023-09-19T02:30:56;15.70;97.90
61392;DHT22;47261;52.892;5.738;2023-09-19T02:33:22;15.70;97.90
61392;DHT22;47261;52.892;5.738;2023-09-19T02:35:47;15.70;98.00
61392;DHT22;47261;52.892;5.738;2023-09-19T02:38:14;15.70;97.90
61392;DHT22;47261;52.892;5.738;2023-09-19T02:40:43;15.60;97.80
61392;DHT22;47261;52.892;5.738;2023-09-19T02:43:09;15.70;97.90
61392;DHT22;47261;52.892;5.738;2023-09-19T02:45:35;15.70;97.90
61392;DHT22;47261;52.892;5.738;2023-09-19T02:48:01;15.70;97.90
61392;DHT22;47261;52.892;5.738;2023-09-19T02:50:27;15.60;98.00
61392;DHT22;47261;52.892;5.738;2023-09-19T02:52:53;15.60;97.90
61392;DHT22;47261;52.892;5.738;2023-09-19T02:55:19;15.60;98.00
61392;DHT22;47261;52.892;5.738;2023-09-19T02:57:49;15.60;97.80
61392;DHT22;47261;52.892;5.738;2023-09-19T03:00:17;15.60;97.70
61392;DHT22;47261;52.892;5.738;2023-09-19T03:02:52;15.60;97.60
61392;DHT22;47261;52.892;5.738;2023-09-19T03:05:18;15.60;97.60
61392;DHT22;47261;52.892;5.738;2023-09-19T03:07:44;15.60;97.80
61392;DHT22;47261;52.892;5.738;2023-09-19T03:10:12;15.60;97.80
61392;DHT22;47261;52.892;5.738;2023-09-19T03:12:40;15.60;97.90
61392;DHT22;47261;52.892;5.738;2023-09-19T03:15:06;15.60;97.70
61392;DHT22;47261;52.892;5.738;2023-09-19T03:17:34;15.60;97.70
61392;DHT22;47261;52.892;5.738;2023-09-19T03:19:59;15.60;97.80
61392;DHT22;47261;52.892;5.738;2023-09-19T03:22:26;15.60;97.90
61392;DHT22;47261;52.892;5.738;2023-09-19T03:24:52;15.60;97.90
61392;DHT22;47261;52.892;5.738;2023-09-19T03:27:18;15.70;98.00
61392;DHT22;47261;52.892;5.738;2023-09-19T03:29:46;15.70;98.00
61392;DHT22;47261;52.892;5.738;2023-09-19T03:32:11;15.70;97.80
61392;DHT22;47261;52.892;5.738;2023-09-19T03:34:38;15.70;97.80
61392;DHT22;47261;52.892;5.738;2023-09-19T03:37:11;15.70;97.70
61392;DHT22;47261;52.892;5.738;2023-09-19T03:39:36;15.80;97.40
61392;DHT22;47261;52.892;5.738;2023-09-19T03:42:02;15.80;97.40
61392;DHT22;47261;52.892;5.738;2023-09-19T03:44:30;15.90;97.50
61392;DHT22;47261;52.892;5.738;2023-09-19T03:46:56;15.90;97.60
61392;DHT22;47261;52.892;5.738;2023-09-19T03:49:22;15.90;97.60
61392;DHT22;47261;52.892;5.738;2023-09-19T03:51:48;15.90;97.40
61392;DHT22;47261;52.892;5.738;2023-09-19T03:54:14;15.90;97.40
61392;DHT22;47261;52.892;5.738;2023-09-19T03:56:40;15.90;97.50
61392;DHT22;47261;52.892;5.738;2023-09-19T03:59:05;15.90;97.50
61392;DHT22;47261;52.892;5.738;2023-09-19T04:01:31;15.80;97.90
61392;DHT22;47261;52.892;5.738;2023-09-19T04:03:59;15.80;97.80
61392;DHT22;47261;52.892;5.738;2023-09-19T04:06:33;15.80;97.90
61392;DHT22;47261;52.892;5.738;2023-09-19T04:09:00;15.80;98.00
61392;DHT22;47261;52.892;5.738;2023-09-19T04:11:26;15.70;98.10
61392;DHT22;47261;52.892;5.738;2023-09-19T04:13:52;15.70;98.20
61392;DHT22;47261;52.892;5.738;2023-09-19T04:16:17;15.70;98.30
61392;DHT22;47261;52.892;5.738;2023-09-19T04:18:43;15.70;98.30
61392;DHT22;47261;52.892;5.738;2023-09-19T04:21:09;15.70;98.40
61392;DHT22;47261;52.892;5.738;2023-09-19T04:23:34;15.70;98.60
61392;DHT22;47261;52.892;5.738;2023-09-19T04:26:00;15.70;98.60
61392;DHT22;47261;52.892;5.738;2023-09-19T04:28:26;15.70;98.60
61392;DHT22;47261;52.892;5.738;2023-09-19T04:30:53;15.70;98.80
61392;DHT22;47261;52.892;5.738;2023-09-19T04:33:19;15.70;99.00
61392;DHT22;47261;52.892;5.738;2023-09-19T04:35:45;15.70;99.20
61392;DHT22;47261;52.892;5.738;2023-09-19T04:38:10;15.70;99.20
61392;DHT22;47261;52.892;5.738;2023-09-19T04:40:37;15.70;99.20
61392;DHT22;47261;52.892;5.738;2023-09-19T04:43:05;15.70;99.20
61392;DHT22;47261;52.892;5.738;2023-09-19T04:45:31;15.70;99.00
61392;DHT22;47261;52.892;5.738;2023-09-19T04:47:57;15.70;98.90
61392;DHT22;47261;52.892;5.738;2023-09-19T04:50:22;15.70;98.90
61392;DHT22;47261;52.892;5.738;2023-09-19T04:52:52;15.70;98.80
61392;DHT22;47261;52.892;5.738;2023-09-19T04:55:19;15.70;98.60
61392;DHT22;47261;52.892;5.738;2023-09-19T04:57:46;15.70;98.60
61392;DHT22;47261;52.892;5.738;2023-09-19T05:00:17;15.70;98.60
61392;DHT22;47261;52.892;5.738;2023-09-19T05:02:50;15.70;98.70
61392;DHT22;47261;52.892;5.738;2023-09-19T05:05:17;15.70;98.50
61392;DHT22;47261;52.892;5.738;2023-09-19T05:07:44;15.70;98.40
61392;DHT22;47261;52.892;5.738;2023-09-19T05:10:10;15.70;98.10
61392;DHT22;47261;52.892;5.738;2023-09-19T05:12:37;15.70;97.90
61392;DHT22;47261;52.892;5.738;2023-09-19T05:15:04;15.70;97.90
61392;DHT22;47261;52.892;5.738;2023-09-19T05:17:30;15.70;97.40
61392;DHT22;47261;52.892;5.738;2023-09-19T05:19:57;15.70;97.30
61392;DHT22;47261;52.892;5.738;2023-09-19T05:22:23;15.70;97.20
61392;DHT22;47261;52.892;5.738;2023-09-19T05:24:50;15.70;96.80
61392;DHT22;47261;52.892;5.738;2023-09-19T05:27:17;15.70;96.80
61392;DHT22;47261;52.892;5.738;2023-09-19T05:29:45;15.70;97.10
61392;DHT22;47261;52.892;5.738;2023-09-19T05:32:11;15.70;96.80
61392;DHT22;47261;52.892;5.738;2023-09-19T05:34:37;15.70;96.70
61392;DHT22;47261;52.892;5.738;2023-09-19T05:37:04;15.70;96.70
61392;DHT22;47261;52.892;5.738;2023-09-19T05:39:33;15.60;96.90
61392;DHT22;47261;52.892;5.738;2023-09-19T05:41:59;15.60;96.80
61392;DHT22;47261;52.892;5.738;2023-09-19T05:44:28;15.60;96.80
61392;DHT22;47261;52.892;5.738;2023-09-19T05:46:54;15.60;96.90
61392;DHT22;47261;52.892;5.738;2023-09-19T05:49:22;15.60;96.90
61392;DHT22;47261;52.892;5.738;2023-09-19T05:51:49;15.60;96.80
61392;DHT22;47261;52.892;5.738;2023-09-19T05:54:19;15.70;97.00
61392;DHT22;47261;52.892;5.738;2023-09-19T05:56:45;15.70;97.10
61392;DHT22;47261;52.892;5.738;2023-09-19T05:59:12;15.70;97.10
61392;DHT22;47261;52.892;5.738;2023-09-19T06:01:42;15.70;97.10
61392;DHT22;47261;52.892;5.738;2023-09-19T06:04:07;15.80;97.00
61392;DHT22;47261;52.892;5.738;2023-09-19T06:06:33;15.80;97.10
61392;DHT22;47261;52.892;5.738;2023-09-19T06:09:06;15.80;97.20
61392;DHT22;47261;52.892;5.738;2023-09-19T06:11:31;15.80;97.20
61392;DHT22;47261;52.892;5.738;2023-09-19T06:14:00;15.90;97.20
61392;DHT22;47261;52.892;5.738;2023-09-19T06:16:28;15.90;97.30
61392;DHT22;47261;52.892;5.738;2023-09-19T06:18:54;15.90;97.00
61392;DHT22;47261;52.892;5.738;2023-09-19T06:21:22;15.90;97.10
61392;DHT22;47261;52.892;5.738;2023-09-19T06:23:48;15.90;97.20
61392;DHT22;47261;52.892;5.738;2023-09-19T06:26:14;15.90;97.30
61392;DHT22;47261;52.892;5.738;2023-09-19T06:28:40;15.90;97.10
61392;DHT22;47261;52.892;5.738;2023-09-19T06:31:06;15.90;97.40
61392;DHT22;47261;52.892;5.738;2023-09-19T06:33:36;15.90;97.20
61392;DHT22;47261;52.892;5.738;2023-09-19T06:36:05;16.00;97.10
61392;DHT22;47261;52.892;5.738;2023-09-19T06:38:31;16.00;97.30
61392;DHT22;47261;52.892;5.738;2023-09-19T06:40:58;16.10;96.90
61392;DHT22;47261;52.892;5.738;2023-09-19T06:43:24;16.20;96.80
61392;DHT22;47261;52.892;5.738;2023-09-19T06:45:50;16.20;96.70
61392;DHT22;47261;52.892;5.738;2023-09-19T06:48:20;16.20;96.30
61392;DHT22;47261;52.892;5.738;2023-09-19T06:50:46;16.20;96.20
61392;DHT22;47261;52.892;5.738;2023-09-19T06:53:13;16.20;95.60
61392;DHT22;47261;52.892;5.738;2023-09-19T06:55:39;16.20;95.60
61392;DHT22;47261;52.892;5.738;2023-09-19T06:58:05;16.20;96.00
61392;DHT22;47261;52.892;5.738;2023-09-19T07:00:31;16.30;95.90
61392;DHT22;47261;52.892;5.738;2023-09-19T07:03:05;16.30;96.10
61392;DHT22;47261;52.892;5.738;2023-09-19T07:05:34;16.30;96.20
61392;DHT22;47261;52.892;5.738;2023-09-19T07:08:03;16.40;96.30
61392;DHT22;47261;52.892;5.738;2023-09-19T07:10:30;16.40;96.60
61392;DHT22;47261;52.892;5.738;2023-09-19T07:15:22;16.50;96.20
61392;DHT22;47261;52.892;5.738;2023-09-19T07:17:54;16.60;96.60
61392;DHT22;47261;52.892;5.738;2023-09-19T07:20:22;16.70;96.80
61392;DHT22;47261;52.892;5.738;2023-09-19T07:22:51;16.70;96.00
61392;DHT22;47261;52.892;5.738;2023-09-19T07:25:18;16.70;96.00
61392;DHT22;47261;52.892;5.738;2023-09-19T07:27:44;16.80;96.40
61392;DHT22;47261;52.892;5.738;2023-09-19T07:30:11;16.80;96.30
61392;DHT22;47261;52.892;5.738;2023-09-19T07:32:37;16.90;96.70
61392;DHT22;47261;52.892;5.738;2023-09-19T07:35:04;16.90;97.00
61392;DHT22;47261;52.892;5.738;2023-09-19T07:37:31;16.90;98.10
61392;DHT22;47261;52.892;5.738;2023-09-19T07:40:02;16.90;98.50
61392;DHT22;47261;52.892;5.738;2023-09-19T07:42:33;16.90;98.90
61392;DHT22;47261;52.892;5.738;2023-09-19T07:45:01;16.90;99.10
61392;DHT22;47261;52.892;5.738;2023-09-19T07:47:26;16.90;99.00
61392;DHT22;47261;52.892;5.738;2023-09-19T07:49:53;17.00;99.10
61392;DHT22;47261;52.892;5.738;2023-09-19T07:52:20;17.00;98.50
61392;DHT22;47261;52.892;5.738;2023-09-19T07:54:47;17.10;98.60
61392;DHT22;47261;52.892;5.738;2023-09-19T07:57:15;17.10;98.10
61392;DHT22;47261;52.892;5.738;2023-09-19T07:59:41;17.20;97.80
61392;DHT22;47261;52.892;5.738;2023-09-19T08:02:08;17.20;97.80
61392;DHT22;47261;52.892;5.738;2023-09-19T08:04:35;17.20;98.00
61392;DHT22;47261;52.892;5.738;2023-09-19T08:07:01;17.30;98.30
61392;DHT22;47261;52.892;5.738;2023-09-19T08:09:29;17.30;98.40
61392;DHT22;47261;52.892;5.738;2023-09-19T08:11:59;17.30;97.50
61392;DHT22;47261;52.892;5.738;2023-09-19T08:14:28;17.30;96.90
61392;DHT22;47261;52.892;5.738;2023-09-19T08:16:57;17.40;98.00
61392;DHT22;47261;52.892;5.738;2023-09-19T08:19:24;17.40;98.10
61392;DHT22;47261;52.892;5.738;2023-09-19T08:21:57;17.50;97.70
61392;DHT22;47261;52.892;5.738;2023-09-19T08:24:28;17.50;97.20
61392;DHT22;47261;52.892;5.738;2023-09-19T08:26:57;17.60;98.10
61392;DHT22;47261;52.892;5.738;2023-09-19T08:29:24;17.70;98.20
61392;DHT22;47261;52.892;5.738;2023-09-19T08:31:56;17.80;98.10
61392;DHT22;47261;52.892;5.738;2023-09-19T08:34:25;17.90;97.70
61392;DHT22;47261;52.892;5.738;2023-09-19T08:36:52;18.00;97.60
61392;DHT22;47261;52.892;5.738;2023-09-19T08:39:22;18.10;97.30
61392;DHT22;47261;52.892;5.738;2023-09-19T08:41:48;18.20;97.00
61392;DHT22;47261;52.892;5.738;2023-09-19T08:44:13;18.20;96.60
61392;DHT22;47261;52.892;5.738;2023-09-19T08:46:41;18.20;96.50
61392;DHT22;47261;52.892;5.738;2023-09-19T08:49:23;18.30;96.00
61392;DHT22;47261;52.892;5.738;2023-09-19T08:54:52;18.50;95.50
61392;DHT22;47261;52.892;5.738;2023-09-19T08:57:21;18.60;95.40
61392;DHT22;47261;52.892;5.738;2023-09-19T08:59:48;18.70;95.20
61392;DHT22;47261;52.892;5.738;2023-09-19T09:02:17;18.70;95.00
61392;DHT22;47261;52.892;5.738;2023-09-19T09:04:45;18.70;95.10
61392;DHT22;47261;52.892;5.738;2023-09-19T09:07:13;18.70;95.40
61392;DHT22;47261;52.892;5.738;2023-09-19T09:09:39;18.60;96.10
61392;DHT22;47261;52.892;5.738;2023-09-19T09:12:11;18.60;96.40
61392;DHT22;47261;52.892;5.738;2023-09-19T09:14:39;18.60;96.30
61392;DHT22;47261;52.892;5.738;2023-09-19T09:17:05;18.50;96.60
61392;DHT22;47261;52.892;5.738;2023-09-19T09:19:34;18.50;96.40
61392;DHT22;47261;52.892;5.738;2023-09-19T09:22:09;18.50;96.20
61392;DHT22;47261;52.892;5.738;2023-09-19T09:24:36;18.50;96.20
61392;DHT22;47261;52.892;5.738;2023-09-19T09:27:06;18.50;96.10
61392;DHT22;47261;52.892;5.738;2023-09-19T09:29:46;18.60;96.00
61392;DHT22;47261;52.892;5.738;2023-09-19T09:32:24;18.70;95.10
61392;DHT22;47261;52.892;5.738;2023-09-19T09:34:57;18.80;95.60
61392;DHT22;47261;52.892;5.738;2023-09-19T09:37:23;18.90;95.20
61392;DHT22;47261;52.892;5.738;2023-09-19T09:39:58;19.00;94.70
61392;DHT22;47261;52.892;5.738;2023-09-19T09:42:36;19.00;95.20
61392;DHT22;47261;52.892;5.738;2023-09-19T09:45:24;19.10;95.40
61392;DHT22;47261;52.892;5.738;2023-09-19T09:47:59;19.20;95.30
61392;DHT22;47261;52.892;5.738;2023-09-19T09:50:33;19.20;95.30
61392;DHT22;47261;52.892;5.738;2023-09-19T09:53:31;19.30;95.10
61392;DHT22;47261;52.892;5.738;2023-09-19T09:56:07;19.30;94.90
61392;DHT22;47261;52.892;5.738;2023-09-19T09:58:37;19.20;94.90
61392;DHT22;47261;52.892;5.738;2023-09-19T10:01:06;19.10;95.00
61392;DHT22;47261;52.892;5.738;2023-09-19T10:03:37;19.00;95.40
61392;DHT22;47261;52.892;5.738;2023-09-19T10:06:12;19.00;95.00
61392;DHT22;47261;52.892;5.738;2023-09-19T10:09:17;18.90;94.90
61392;DHT22;47261;52.892;5.738;2023-09-19T10:11:47;18.90;95.00
61392;DHT22;47261;52.892;5.738;2023-09-19T10:14:20;18.90;95.20
61392;DHT22;47261;52.892;5.738;2023-09-19T10:16:49;18.90;95.40
61392;DHT22;47261;52.892;5.738;2023-09-19T10:22:02;18.80;95.80
61392;DHT22;47261;52.892;5.738;2023-09-19T10:24:28;18.80;95.20
61392;DHT22;47261;52.892;5.738;2023-09-19T10:26:55;18.80;95.30
61392;DHT22;47261;52.892;5.738;2023-09-19T10:29:21;18.60;95.70
61392;DHT22;47261;52.892;5.738;2023-09-19T10:31:49;18.60;95.80
61392;DHT22;47261;52.892;5.738;2023-09-19T10:34:19;18.60;95.80
61392;DHT22;47261;52.892;5.738;2023-09-19T10:36:46;18.60;95.30
61392;DHT22;47261;52.892;5.738;2023-09-19T10:39:15;18.60;95.40
61392;DHT22;47261;52.892;5.738;2023-09-19T10:41:50;18.60;95.40
61392;DHT22;47261;52.892;5.738;2023-09-19T10:44:24;18.50;95.50
61392;DHT22;47261;52.892;5.738;2023-09-19T10:46:51;18.40;95.70
61392;DHT22;47261;52.892;5.738;2023-09-19T10:49:19;18.40;96.00
61392;DHT22;47261;52.892;5.738;2023-09-19T10:51:45;18.40;96.20
61392;DHT22;47261;52.892;5.738;2023-09-19T10:54:17;18.40;96.30
61392;DHT22;47261;52.892;5.738;2023-09-19T10:56:49;18.50;96.20
61392;DHT22;47261;52.892;5.738;2023-09-19T10:59:18;18.60;96.00
61392;DHT22;47261;52.892;5.738;2023-09-19T11:01:51;18.70;96.20
61392;DHT22;47261;52.892;5.738;2023-09-19T11:09:52;18.90;95.90
61392;DHT22;47261;52.892;5.738;2023-09-19T11:15:03;18.90;95.70
61392;DHT22;47261;52.892;5.738;2023-09-19T11:17:42;18.90;95.70
61392;DHT22;47261;52.892;5.738;2023-09-19T11:30:45;18.70;95.90
61392;DHT22;47261;52.892;5.738;2023-09-19T11:33:32;18.70;95.90
61392;DHT22;47261;52.892;5.738;2023-09-19T11:36:08;18.70;96.20
61392;DHT22;47261;52.892;5.738;2023-09-19T11:46:30;18.70;95.70
61392;DHT22;47261;52.892;5.738;2023-09-19T11:49:06;18.60;95.90
61392;DHT22;47261;52.892;5.738;2023-09-19T11:51:40;18.60;96.40
61392;DHT22;47261;52.892;5.738;2023-09-19T11:54:11;18.60;96.60
61392;DHT22;47261;52.892;5.738;2023-09-19T11:56:52;18.60;96.50
61392;DHT22;47261;52.892;5.738;2023-09-19T11:59:22;18.60;96.70
61392;DHT22;47261;52.892;5.738;2023-09-19T12:01:53;18.60;96.80
61392;DHT22;47261;52.892;5.738;2023-09-19T12:07:09;18.80;96.70
61392;DHT22;47261;52.892;5.738;2023-09-19T12:10:02;18.90;96.10
61392;DHT22;47261;52.892;5.738;2023-09-19T12:12:28;19.00;95.70
61392;DHT22;47261;52.892;5.738;2023-09-19T12:14:57;19.10;96.10
61392;DHT22;47261;52.892;5.738;2023-09-19T12:17:34;19.20;95.70
61392;DHT22;47261;52.892;5.738;2023-09-19T12:20:01;19.20;95.40
61392;DHT22;47261;52.892;5.738;2023-09-19T12:22:44;19.30;95.30
61392;DHT22;47261;52.892;5.738;2023-09-19T12:25:12;19.20;95.20
61392;DHT22;47261;52.892;5.738;2023-09-19T12:27:44;19.20;95.40
61392;DHT22;47261;52.892;5.738;2023-09-19T12:30:18;19.20;95.50
61392;DHT22;47261;52.892;5.738;2023-09-19T12:32:46;19.10;95.70
61392;DHT22;47261;52.892;5.738;2023-09-19T12:35:31;19.00;95.60
61392;DHT22;47261;52.892;5.738;2023-09-19T12:38:01;18.90;96.20
61392;DHT22;47261;52.892;5.738;2023-09-19T12:40:28;18.90;96.40
61392;DHT22;47261;52.892;5.738;2023-09-19T12:42:55;18.90;96.30
61392;DHT22;47261;52.892;5.738;2023-09-19T12:45:21;18.90;96.50
61392;DHT22;47261;52.892;5.738;2023-09-19T12:48:18;18.80;96.80
61392;DHT22;47261;52.892;5.738;2023-09-19T12:51:07;18.70;96.60
61392;DHT22;47261;52.892;5.738;2023-09-19T12:53:36;18.70;96.50
61392;DHT22;47261;52.892;5.738;2023-09-19T12:56:13;18.60;96.70
61392;DHT22;47261;52.892;5.738;2023-09-19T12:58:55;18.60;97.10
61392;DHT22;47261;52.892;5.738;2023-09-19T13:01:22;18.60;97.40
61392;DHT22;47261;52.892;5.738;2023-09-19T13:06:48;18.70;97.70
61392;DHT22;47261;52.892;5.738;2023-09-19T13:09:15;18.70;98.40
61392;DHT22;47261;52.892;5.738;2023-09-19T13:11:42;18.70;98.60
61392;DHT22;47261;52.892;5.738;2023-09-19T13:14:22;18.70;98.40
61392;DHT22;47261;52.892;5.738;2023-09-19T13:17:04;18.70;98.60
61392;DHT22;47261;52.892;5.738;2023-09-19T13:19:35;18.80;98.50
61392;DHT22;47261;52.892;5.738;2023-09-19T13:22:01;18.80;98.30
61392;DHT22;47261;52.892;5.738;2023-09-19T13:24:28;18.90;98.30
61392;DHT22;47261;52.892;5.738;2023-09-19T13:26:56;19.00;98.30
61392;DHT22;47261;52.892;5.738;2023-09-19T13:29:22;19.10;97.80
61392;DHT22;47261;52.892;5.738;2023-09-19T13:31:52;19.20;97.70
61392;DHT22;47261;52.892;5.738;2023-09-19T13:34:21;19.20;97.70
61392;DHT22;47261;52.892;5.738;2023-09-19T13:36:47;19.10;97.70
61392;DHT22;47261;52.892;5.738;2023-09-19T13:39:16;19.10;97.90
61392;DHT22;47261;52.892;5.738;2023-09-19T13:41:45;19.10;98.10
61392;DHT22;47261;52.892;5.738;2023-09-19T13:44:12;19.00;98.00
61392;DHT22;47261;52.892;5.738;2023-09-19T13:46:38;19.00;97.60
61392;DHT22;47261;52.892;5.738;2023-09-19T13:49:04;18.90;97.90
61392;DHT22;47261;52.892;5.738;2023-09-19T13:51:31;18.90;98.10
61392;DHT22;47261;52.892;5.738;2023-09-19T13:53:56;18.90;98.00
61392;DHT22;47261;52.892;5.738;2023-09-19T13:56:22;18.90;98.10
61392;DHT22;47261;52.892;5.738;2023-09-19T13:58:48;18.90;97.90
61392;DHT22;47261;52.892;5.738;2023-09-19T14:01:13;18.90;97.80
61392;DHT22;47261;52.892;5.738;2023-09-19T14:03:41;18.90;97.90
61392;DHT22;47261;52.892;5.738;2023-09-19T14:06:15;18.90;97.80
61392;DHT22;47261;52.892;5.738;2023-09-19T14:08:41;19.00;98.00
61392;DHT22;47261;52.892;5.738;2023-09-19T14:11:07;19.00;97.80
61392;DHT22;47261;52.892;5.738;2023-09-19T14:13:33;19.10;97.80
61392;DHT22;47261;52.892;5.738;2023-09-19T14:16:06;19.10;97.50
61392;DHT22;47261;52.892;5.738;2023-09-19T14:18:32;19.20;97.50
61392;DHT22;47261;52.892;5.738;2023-09-19T14:21:01;19.20;97.30
61392;DHT22;47261;52.892;5.738;2023-09-19T14:23:28;19.20;97.30
61392;DHT22;47261;52.892;5.738;2023-09-19T14:25:54;19.10;97.30
61392;DHT22;47261;52.892;5.738;2023-09-19T14:28:20;19.10;97.50
61392;DHT22;47261;52.892;5.738;2023-09-19T14:30:45;19.10;98.30
61392;DHT22;47261;52.892;5.738;2023-09-19T14:33:12;19.00;98.30
61392;DHT22;47261;52.892;5.738;2023-09-19T14:35:37;18.90;98.20
61392;DHT22;47261;52.892;5.738;2023-09-19T14:38:04;18.90;98.30
61392;DHT22;47261;52.892;5.738;2023-09-19T14:40:29;18.90;98.50
61392;DHT22;47261;52.892;5.738;2023-09-19T14:42:56;18.90;98.30
61392;DHT22;47261;52.892;5.738;2023-09-19T14:45:22;18.90;98.20
61392;DHT22;47261;52.892;5.738;2023-09-19T14:47:48;18.90;98.40
61392;DHT22;47261;52.892;5.738;2023-09-19T14:50:15;19.00;98.30
61392;DHT22;47261;52.892;5.738;2023-09-19T14:52:41;19.00;99.10
61392;DHT22;47261;52.892;5.738;2023-09-19T14:55:07;18.90;99.20
61392;DHT22;47261;52.892;5.738;2023-09-19T14:57:36;18.80;99.20
61392;DHT22;47261;52.892;5.738;2023-09-19T15:00:06;18.70;99.60
61392;DHT22;47261;52.892;5.738;2023-09-19T15:02:40;18.70;99.90
61392;DHT22;47261;52.892;5.738;2023-09-19T15:05:06;18.60;99.90
61392;DHT22;47261;52.892;5.738;2023-09-19T15:07:35;18.60;99.90
61392;DHT22;47261;52.892;5.738;2023-09-19T15:10:02;18.50;99.90
61392;DHT22;47261;52.892;5.738;2023-09-19T15:12:28;18.40;99.90
61392;DHT22;47261;52.892;5.738;2023-09-19T15:14:54;18.40;99.90
61392;DHT22;47261;52.892;5.738;2023-09-19T15:17:20;18.30;99.90
61392;DHT22;47261;52.892;5.738;2023-09-19T15:19:46;18.20;99.90
61392;DHT22;47261;52.892;5.738;2023-09-19T15:22:11;18.20;99.90
61392;DHT22;47261;52.892;5.738;2023-09-19T15:24:38;18.10;99.90
61392;DHT22;47261;52.892;5.738;2023-09-19T15:27:04;18.10;99.90
61392;DHT22;47261;52.892;5.738;2023-09-19T15:29:29;18.10;99.90
61392;DHT22;47261;52.892;5.738;2023-09-19T15:31:55;18.00;99.90
61392;DHT22;47261;52.892;5.738;2023-09-19T15:34:24;18.00;99.90
61392;DHT22;47261;52.892;5.738;2023-09-19T15:36:50;17.90;99.90
61392;DHT22;47261;52.892;5.738;2023-09-19T15:39:17;17.90;99.90
61392;DHT22;47261;52.892;5.738;2023-09-19T15:41:45;17.90;99.90
61392;DHT22;47261;52.892;5.738;2023-09-19T15:44:16;17.80;99.90
61392;DHT22;47261;52.892;5.738;2023-09-19T15:46:42;17.70;99.90
61392;DHT22;47261;52.892;5.738;2023-09-19T15:49:10;17.60;99.90
61392;DHT22;47261;52.892;5.738;2023-09-19T15:51:36;17.50;99.90
61392;DHT22;47261;52.892;5.738;2023-09-19T15:54:07;17.40;99.90
61392;DHT22;47261;52.892;5.738;2023-09-19T15:56:33;17.40;99.90
61392;DHT22;47261;52.892;5.738;2023-09-19T15:59:04;17.30;99.90
61392;DHT22;47261;52.892;5.738;2023-09-19T16:01:30;17.30;99.90
61392;DHT22;47261;52.892;5.738;2023-09-19T16:03:55;17.30;99.90
61392;DHT22;47261;52.892;5.738;2023-09-19T16:06:26;17.20;99.90
61392;DHT22;47261;52.892;5.738;2023-09-19T16:08:53;17.30;99.90
61392;DHT22;47261;52.892;5.738;2023-09-19T16:11:21;17.20;99.90
61392;DHT22;47261;52.892;5.738;2023-09-19T16:13:49;17.20;99.90
61392;DHT22;47261;52.892;5.738;2023-09-19T16:16:17;17.20;99.90
61392;DHT22;47261;52.892;5.738;2023-09-19T16:18:46;17.20;99.90
61392;DHT22;47261;52.892;5.738;2023-09-19T16:21:13;17.20;99.90
61392;DHT22;47261;52.892;5.738;2023-09-19T16:23:39;17.10;99.90
61392;DHT22;47261;52.892;5.738;2023-09-19T16:26:08;17.10;99.90
61392;DHT22;47261;52.892;5.738;2023-09-19T16:28:36;17.10;99.90
61392;DHT22;47261;52.892;5.738;2023-09-19T16:31:06;17.10;99.90
61392;DHT22;47261;52.892;5.738;2023-09-19T16:33:36;17.10;99.90